sensor_id;sensor_type;location;lat;lon;timestamp;P1;durP1;ratioP1;P2;durP2;ratioP2
1390;SDS011;690;51.454;7.194;2023-05-16T00:00:38;18.50;;;13.37;;
1390;SDS011;690;51.454;7.194;2023-05-16T00:03:05;20.00;;;13.97;;
1390;SDS011;690;51.454;7.194;2023-05-16T00:05:36;16.37;;;12.30;;
1390;SDS011;690;51.454;7.194;2023-05-16T00:08:03;18.27;;;11.30;;
1390;SDS011;690;51.454;7.194;2023-05-16T00:10:31;17.60;;;11.47;;
1390;SDS011;690;51.454;7.194;2023-05-16T00:12:58;15.30;;;10.00;;
1390;SDS011;690;51.454;7.194;2023-05-16T00:15:26;13.90;;;10.37;;
1390;SDS011;690;51.454;7.194;2023-05-16T00:17:53;16.80;;;11.23;;
1390;SDS011;690;51.454;7.194;2023-05-16T00:20:22;17.87;;;12.47;;
1390;SDS011;690;51.454;7.194;2023-05-16T00:22:49;16.53;;;10.13;;
1390;SDS011;690;51.454;7.194;2023-05-16T00:25:16;15.73;;;10.97;;
1390;SDS011;690;51.454;7.194;2023-05-16T00:27:44;15.30;;;11.10;;
1390;SDS011;690;51.454;7.194;2023-05-16T00:30:12;15.47;;;10.27;;
1390;SDS011;690;51.454;7.194;2023-05-16T00:32:39;13.10;;;10.17;;
1390;SDS011;690;51.454;7.194;2023-05-16T00:35:06;14.43;;;9.27;;
1390;SDS011;690;51.454;7.194;2023-05-16T00:37:34;14.10;;;8.60;;
1390;SDS011;690;51.454;7.194;2023-05-16T00:40:02;10.50;;;7.63;;
1390;SDS011;690;51.454;7.194;2023-05-16T00:42:30;12.23;;;8.70;;
1390;SDS011;690;51.454;7.194;2023-05-16T00:44:58;10.67;;;8.03;;
1390;SDS011;690;51.454;7.194;2023-05-16T00:47:25;12.40;;;8.83;;
1390;SDS011;690;51.454;7.194;2023-05-16T00:49:52;10.60;;;8.33;;
1390;SDS011;690;51.454;7.194;2023-05-16T00:52:19;9.93;;;7.97;;
1390;SDS011;690;51.454;7.194;2023-05-16T00:54:46;10.90;;;7.60;;
1390;SDS011;690;51.454;7.194;2023-05-16T00:57:13;11.73;;;7.30;;
1390;SDS011;690;51.454;7.194;2023-05-16T00:59:40;10.97;;;7.97;;
1390;SDS011;690;51.454;7.194;2023-05-16T01:02:09;8.73;;;7.00;;
1390;SDS011;690;51.454;7.194;2023-05-16T01:04:37;10.97;;;6.97;;
1390;SDS011;690;51.454;7.194;2023-05-16T01:07:04;8.93;;;7.00;;
1390;SDS011;690;51.454;7.194;2023-05-16T01:09:31;7.17;;;6.27;;
1390;SDS011;690;51.454;7.194;2023-05-16T01:12:01;7.40;;;5.80;;
1390;SDS011;690;51.454;7.194;2023-05-16T01:14:37;9.23;;;6.00;;
1390;SDS011;690;51.454;7.194;2023-05-16T01:17:12;10.00;;;6.30;;
1390;SDS011;690;51.454;7.194;2023-05-16T01:19:54;6.60;;;5.00;;
1390;SDS011;690;51.454;7.194;2023-05-16T01:22:29;7.23;;;5.53;;
1390;SDS011;690;51.454;7.194;2023-05-16T01:25:11;5.47;;;4.87;;
1390;SDS011;690;51.454;7.194;2023-05-16T01:27:48;4.77;;;3.80;;
1390;SDS011;690;51.454;7.194;2023-05-16T01:30:17;4.23;;;3.83;;
1390;SDS011;690;51.454;7.194;2023-05-16T01:32:45;6.97;;;3.67;;
1390;SDS011;690;51.454;7.194;2023-05-16T01:35:13;5.47;;;3.77;;
1390;SDS011;690;51.454;7.194;2023-05-16T01:37:43;6.80;;;3.77;;
1390;SDS011;690;51.454;7.194;2023-05-16T01:40:15;7.97;;;3.23;;
1390;SDS011;690;51.454;7.194;2023-05-16T01:42:50;7.53;;;3.00;;
1390;SDS011;690;51.454;7.194;2023-05-16T01:45:22;9.23;;;3.37;;
1390;SDS011;690;51.454;7.194;2023-05-16T01:47:54;8.50;;;3.00;;
1390;SDS011;690;51.454;7.194;2023-05-16T01:50:31;7.27;;;3.27;;
1390;SDS011;690;51.454;7.194;2023-05-16T01:53:02;5.57;;;3.20;;
1390;SDS011;690;51.454;7.194;2023-05-16T01:55:37;9.20;;;3.50;;
1390;SDS011;690;51.454;7.194;2023-05-16T01:58:09;7.80;;;4.10;;
1390;SDS011;690;51.454;7.194;2023-05-16T02:00:37;9.67;;;3.27;;
1390;SDS011;690;51.454;7.194;2023-05-16T02:03:05;11.40;;;3.37;;
1390;SDS011;690;51.454;7.194;2023-05-16T02:05:32;9.30;;;3.43;;
1390;SDS011;690;51.454;7.194;2023-05-16T02:07:59;13.13;;;3.43;;
1390;SDS011;690;51.454;7.194;2023-05-16T02:10:26;7.23;;;3.43;;
1390;SDS011;690;51.454;7.194;2023-05-16T02:12:53;8.63;;;3.90;;
1390;SDS011;690;51.454;7.194;2023-05-16T02:15:28;14.63;;;5.03;;
1390;SDS011;690;51.454;7.194;2023-05-16T02:17:55;10.17;;;3.30;;
1390;SDS011;690;51.454;7.194;2023-05-16T02:20:22;10.00;;;3.23;;
1390;SDS011;690;51.454;7.194;2023-05-16T02:22:49;9.03;;;3.20;;
1390;SDS011;690;51.454;7.194;2023-05-16T02:25:17;14.90;;;3.80;;
1390;SDS011;690;51.454;7.194;2023-05-16T02:27:44;6.63;;;3.73;;
1390;SDS011;690;51.454;7.194;2023-05-16T02:30:11;12.07;;;4.60;;
1390;SDS011;690;51.454;7.194;2023-05-16T02:32:39;13.37;;;4.27;;
1390;SDS011;690;51.454;7.194;2023-05-16T02:35:09;7.93;;;3.43;;
1390;SDS011;690;51.454;7.194;2023-05-16T02:37:36;12.43;;;4.37;;
1390;SDS011;690;51.454;7.194;2023-05-16T02:40:03;10.10;;;4.13;;
1390;SDS011;690;51.454;7.194;2023-05-16T02:42:31;9.10;;;4.60;;
1390;SDS011;690;51.454;7.194;2023-05-16T02:44:58;12.03;;;4.50;;
1390;SDS011;690;51.454;7.194;2023-05-16T02:47:25;13.57;;;4.70;;
1390;SDS011;690;51.454;7.194;2023-05-16T02:49:53;9.80;;;4.50;;
1390;SDS011;690;51.454;7.194;2023-05-16T02:52:20;13.77;;;4.33;;
1390;SDS011;690;51.454;7.194;2023-05-16T02:54:47;11.90;;;5.00;;
1390;SDS011;690;51.454;7.194;2023-05-16T02:57:14;12.20;;;5.70;;
1390;SDS011;690;51.454;7.194;2023-05-16T02:59:41;16.70;;;4.77;;
1390;SDS011;690;51.454;7.194;2023-05-16T03:02:08;15.73;;;5.00;;
1390;SDS011;690;51.454;7.194;2023-05-16T03:04:35;8.20;;;3.97;;
1390;SDS011;690;51.454;7.194;2023-05-16T03:07:03;10.23;;;5.30;;
1390;SDS011;690;51.454;7.194;2023-05-16T03:09:30;14.07;;;4.50;;
1390;SDS011;690;51.454;7.194;2023-05-16T03:11:57;12.57;;;5.37;;
1390;SDS011;690;51.454;7.194;2023-05-16T03:14:24;7.37;;;4.20;;
1390;SDS011;690;51.454;7.194;2023-05-16T03:16:51;18.60;;;5.13;;
1390;SDS011;690;51.454;7.194;2023-05-16T03:19:18;7.17;;;4.30;;
1390;SDS011;690;51.454;7.194;2023-05-16T03:21:45;19.63;;;4.73;;
1390;SDS011;690;51.454;7.194;2023-05-16T03:24:13;10.67;;;5.60;;
1390;SDS011;690;51.454;7.194;2023-05-16T03:26:40;13.50;;;5.07;;
1390;SDS011;690;51.454;7.194;2023-05-16T03:29:07;17.60;;;5.30;;
1390;SDS011;690;51.454;7.194;2023-05-16T03:31:34;12.60;;;5.00;;
1390;SDS011;690;51.454;7.194;2023-05-16T03:34:01;15.07;;;6.50;;
1390;SDS011;690;51.454;7.194;2023-05-16T03:36:27;10.13;;;5.37;;
1390;SDS011;690;51.454;7.194;2023-05-16T03:38:55;19.23;;;5.60;;
1390;SDS011;690;51.454;7.194;2023-05-16T03:41:23;14.80;;;5.17;;
1390;SDS011;690;51.454;7.194;2023-05-16T03:43:51;16.47;;;4.83;;
1390;SDS011;690;51.454;7.194;2023-05-16T03:46:18;12.23;;;4.40;;
1390;SDS011;690;51.454;7.194;2023-05-16T03:48:44;7.50;;;3.77;;
1390;SDS011;690;51.454;7.194;2023-05-16T03:51:11;13.00;;;4.63;;
1390;SDS011;690;51.454;7.194;2023-05-16T03:53:38;19.90;;;5.50;;
1390;SDS011;690;51.454;7.194;2023-05-16T03:56:05;12.33;;;4.03;;
1390;SDS011;690;51.454;7.194;2023-05-16T03:58:33;13.63;;;3.77;;
1390;SDS011;690;51.454;7.194;2023-05-16T04:01:00;16.83;;;5.17;;
1390;SDS011;690;51.454;7.194;2023-05-16T04:03:27;13.10;;;4.50;;
1390;SDS011;690;51.454;7.194;2023-05-16T04:05:54;16.03;;;3.87;;
1390;SDS011;690;51.454;7.194;2023-05-16T04:08:21;18.23;;;4.23;;
1390;SDS011;690;51.454;7.194;2023-05-16T04:10:48;8.20;;;4.53;;
1390;SDS011;690;51.454;7.194;2023-05-16T04:13:16;19.30;;;4.83;;
1390;SDS011;690;51.454;7.194;2023-05-16T04:15:44;9.17;;;3.30;;
1390;SDS011;690;51.454;7.194;2023-05-16T04:18:11;10.60;;;4.50;;
1390;SDS011;690;51.454;7.194;2023-05-16T04:20:38;13.10;;;5.30;;
1390;SDS011;690;51.454;7.194;2023-05-16T04:23:07;18.17;;;4.37;;
1390;SDS011;690;51.454;7.194;2023-05-16T04:25:36;15.83;;;3.50;;
1390;SDS011;690;51.454;7.194;2023-05-16T04:28:03;18.30;;;4.43;;
1390;SDS011;690;51.454;7.194;2023-05-16T04:30:31;16.50;;;5.00;;
1390;SDS011;690;51.454;7.194;2023-05-16T04:32:59;12.27;;;4.53;;
1390;SDS011;690;51.454;7.194;2023-05-16T04:35:26;12.30;;;4.23;;
1390;SDS011;690;51.454;7.194;2023-05-16T04:37:53;22.23;;;4.00;;
1390;SDS011;690;51.454;7.194;2023-05-16T04:40:21;12.33;;;5.23;;
1390;SDS011;690;51.454;7.194;2023-05-16T04:42:49;11.07;;;3.60;;
1390;SDS011;690;51.454;7.194;2023-05-16T04:45:16;14.93;;;4.40;;
1390;SDS011;690;51.454;7.194;2023-05-16T04:47:43;17.10;;;4.20;;
1390;SDS011;690;51.454;7.194;2023-05-16T04:50:11;16.13;;;4.43;;
1390;SDS011;690;51.454;7.194;2023-05-16T04:52:39;15.63;;;4.40;;
1390;SDS011;690;51.454;7.194;2023-05-16T04:55:07;12.03;;;3.87;;
1390;SDS011;690;51.454;7.194;2023-05-16T04:57:35;15.20;;;4.33;;
1390;SDS011;690;51.454;7.194;2023-05-16T05:00:02;17.60;;;4.23;;
1390;SDS011;690;51.454;7.194;2023-05-16T05:02:34;12.60;;;4.13;;
1390;SDS011;690;51.454;7.194;2023-05-16T05:05:02;15.17;;;4.33;;
1390;SDS011;690;51.454;7.194;2023-05-16T05:07:31;12.93;;;2.90;;
1390;SDS011;690;51.454;7.194;2023-05-16T05:09:58;19.83;;;3.67;;
1390;SDS011;690;51.454;7.194;2023-05-16T05:12:24;13.57;;;4.57;;
1390;SDS011;690;51.454;7.194;2023-05-16T05:14:52;12.10;;;3.70;;
1390;SDS011;690;51.454;7.194;2023-05-16T05:17:19;17.10;;;4.03;;
1390;SDS011;690;51.454;7.194;2023-05-16T05:19:46;16.90;;;4.03;;
1390;SDS011;690;51.454;7.194;2023-05-16T05:22:13;9.87;;;3.53;;
1390;SDS011;690;51.454;7.194;2023-05-16T05:24:41;12.67;;;3.20;;
1390;SDS011;690;51.454;7.194;2023-05-16T05:27:08;11.40;;;3.83;;
1390;SDS011;690;51.454;7.194;2023-05-16T05:29:35;14.43;;;3.83;;
1390;SDS011;690;51.454;7.194;2023-05-16T05:32:02;11.97;;;3.57;;
1390;SDS011;690;51.454;7.194;2023-05-16T05:34:30;10.47;;;4.17;;
1390;SDS011;690;51.454;7.194;2023-05-16T05:36:57;12.80;;;3.67;;
1390;SDS011;690;51.454;7.194;2023-05-16T05:39:24;11.53;;;3.70;;
1390;SDS011;690;51.454;7.194;2023-05-16T05:41:53;13.97;;;3.33;;
1390;SDS011;690;51.454;7.194;2023-05-16T05:44:20;10.10;;;3.30;;
1390;SDS011;690;51.454;7.194;2023-05-16T05:46:46;14.23;;;3.60;;
1390;SDS011;690;51.454;7.194;2023-05-16T05:49:13;11.73;;;4.30;;
1390;SDS011;690;51.454;7.194;2023-05-16T05:51:40;11.87;;;4.00;;
1390;SDS011;690;51.454;7.194;2023-05-16T05:54:07;17.93;;;3.37;;
1390;SDS011;690;51.454;7.194;2023-05-16T05:56:34;7.63;;;2.73;;
1390;SDS011;690;51.454;7.194;2023-05-16T05:59:03;6.40;;;2.37;;
1390;SDS011;690;51.454;7.194;2023-05-16T06:01:30;9.63;;;3.30;;
1390;SDS011;690;51.454;7.194;2023-05-16T06:03:57;17.87;;;4.10;;
1390;SDS011;690;51.454;7.194;2023-05-16T06:06:24;12.13;;;2.73;;
1390;SDS011;690;51.454;7.194;2023-05-16T06:08:50;11.70;;;2.57;;
1390;SDS011;690;51.454;7.194;2023-05-16T06:11:18;10.83;;;3.00;;
1390;SDS011;690;51.454;7.194;2023-05-16T06:13:45;12.60;;;3.60;;
1390;SDS011;690;51.454;7.194;2023-05-16T06:16:14;10.20;;;3.47;;
1390;SDS011;690;51.454;7.194;2023-05-16T06:18:40;9.90;;;2.20;;
1390;SDS011;690;51.454;7.194;2023-05-16T06:21:07;19.07;;;3.37;;
1390;SDS011;690;51.454;7.194;2023-05-16T06:23:34;13.43;;;3.37;;
1390;SDS011;690;51.454;7.194;2023-05-16T06:26:01;12.73;;;3.17;;
1390;SDS011;690;51.454;7.194;2023-05-16T06:28:29;12.07;;;2.83;;
1390;SDS011;690;51.454;7.194;2023-05-16T06:30:56;14.93;;;3.37;;
1390;SDS011;690;51.454;7.194;2023-05-16T06:33:24;9.90;;;2.97;;
1390;SDS011;690;51.454;7.194;2023-05-16T06:35:51;12.10;;;3.20;;
1390;SDS011;690;51.454;7.194;2023-05-16T06:38:18;11.43;;;2.87;;
1390;SDS011;690;51.454;7.194;2023-05-16T06:40:45;11.00;;;2.90;;
1390;SDS011;690;51.454;7.194;2023-05-16T06:43:12;12.73;;;2.77;;
1390;SDS011;690;51.454;7.194;2023-05-16T06:45:39;8.60;;;2.50;;
1390;SDS011;690;51.454;7.194;2023-05-16T06:48:06;10.13;;;2.30;;
1390;SDS011;690;51.454;7.194;2023-05-16T06:50:35;12.10;;;2.50;;
1390;SDS011;690;51.454;7.194;2023-05-16T06:53:01;9.63;;;2.50;;
1390;SDS011;690;51.454;7.194;2023-05-16T06:55:29;8.33;;;2.70;;
1390;SDS011;690;51.454;7.194;2023-05-16T06:57:56;9.90;;;2.93;;
1390;SDS011;690;51.454;7.194;2023-05-16T07:00:22;7.50;;;3.40;;
1390;SDS011;690;51.454;7.194;2023-05-16T07:02:50;10.27;;;2.77;;
1390;SDS011;690;51.454;7.194;2023-05-16T07:05:17;16.83;;;2.93;;
1390;SDS011;690;51.454;7.194;2023-05-16T07:07:45;12.70;;;2.70;;
1390;SDS011;690;51.454;7.194;2023-05-16T07:10:13;10.70;;;2.33;;
1390;SDS011;690;51.454;7.194;2023-05-16T07:12:41;15.10;;;3.07;;
1390;SDS011;690;51.454;7.194;2023-05-16T07:15:08;11.00;;;2.63;;
1390;SDS011;690;51.454;7.194;2023-05-16T07:17:36;7.43;;;2.33;;
1390;SDS011;690;51.454;7.194;2023-05-16T07:20:03;3.60;;;2.00;;
1390;SDS011;690;51.454;7.194;2023-05-16T07:22:33;9.40;;;3.33;;
1390;SDS011;690;51.454;7.194;2023-05-16T07:25:03;8.13;;;2.40;;
1390;SDS011;690;51.454;7.194;2023-05-16T07:27:30;7.13;;;2.07;;
1390;SDS011;690;51.454;7.194;2023-05-16T07:29:57;6.67;;;2.47;;
1390;SDS011;690;51.454;7.194;2023-05-16T07:32:24;9.63;;;2.10;;
1390;SDS011;690;51.454;7.194;2023-05-16T07:34:51;5.60;;;2.20;;
1390;SDS011;690;51.454;7.194;2023-05-16T07:37:18;4.83;;;2.50;;
1390;SDS011;690;51.454;7.194;2023-05-16T07:39:45;6.77;;;1.67;;
1390;SDS011;690;51.454;7.194;2023-05-16T07:42:13;9.53;;;1.77;;
1390;SDS011;690;51.454;7.194;2023-05-16T07:44:40;4.77;;;1.90;;
1390;SDS011;690;51.454;7.194;2023-05-16T07:47:07;7.20;;;1.77;;
1390;SDS011;690;51.454;7.194;2023-05-16T07:49:34;6.77;;;2.30;;
1390;SDS011;690;51.454;7.194;2023-05-16T07:52:01;7.53;;;2.23;;
1390;SDS011;690;51.454;7.194;2023-05-16T07:54:28;3.60;;;1.97;;
1390;SDS011;690;51.454;7.194;2023-05-16T07:56:56;7.70;;;1.47;;
1390;SDS011;690;51.454;7.194;2023-05-16T07:59:24;4.43;;;1.40;;
1390;SDS011;690;51.454;7.194;2023-05-16T08:01:51;5.87;;;1.87;;
1390;SDS011;690;51.454;7.194;2023-05-16T08:04:18;7.80;;;2.37;;
1390;SDS011;690;51.454;7.194;2023-05-16T08:06:47;5.13;;;2.10;;
1390;SDS011;690;51.454;7.194;2023-05-16T08:09:14;8.93;;;1.47;;
1390;SDS011;690;51.454;7.194;2023-05-16T08:11:41;6.63;;;1.60;;
1390;SDS011;690;51.454;7.194;2023-05-16T08:14:09;4.90;;;1.40;;
1390;SDS011;690;51.454;7.194;2023-05-16T08:16:37;8.70;;;1.80;;
1390;SDS011;690;51.454;7.194;2023-05-16T08:19:04;4.10;;;1.40;;
1390;SDS011;690;51.454;7.194;2023-05-16T08:21:32;3.10;;;1.30;;
1390;SDS011;690;51.454;7.194;2023-05-16T08:23:59;8.60;;;1.90;;
1390;SDS011;690;51.454;7.194;2023-05-16T08:26:25;5.93;;;1.70;;
1390;SDS011;690;51.454;7.194;2023-05-16T08:28:52;3.30;;;1.10;;
1390;SDS011;690;51.454;7.194;2023-05-16T08:31:19;5.13;;;1.80;;
1390;SDS011;690;51.454;7.194;2023-05-16T08:33:47;5.60;;;2.30;;
1390;SDS011;690;51.454;7.194;2023-05-16T08:36:14;5.33;;;1.97;;
1390;SDS011;690;51.454;7.194;2023-05-16T08:38:43;5.40;;;1.60;;
1390;SDS011;690;51.454;7.194;2023-05-16T08:41:10;4.50;;;1.80;;
1390;SDS011;690;51.454;7.194;2023-05-16T08:43:37;7.23;;;2.43;;
1390;SDS011;690;51.454;7.194;2023-05-16T08:46:05;8.80;;;1.90;;
1390;SDS011;690;51.454;7.194;2023-05-16T08:48:32;7.27;;;1.97;;
1390;SDS011;690;51.454;7.194;2023-05-16T08:51:02;5.13;;;1.70;;
1390;SDS011;690;51.454;7.194;2023-05-16T08:53:35;3.97;;;1.47;;
1390;SDS011;690;51.454;7.194;2023-05-16T08:56:06;8.30;;;2.40;;
1390;SDS011;690;51.454;7.194;2023-05-16T08:58:33;3.33;;;1.17;;
1390;SDS011;690;51.454;7.194;2023-05-16T09:01:02;4.27;;;1.33;;
1390;SDS011;690;51.454;7.194;2023-05-16T09:03:33;8.70;;;2.23;;
1390;SDS011;690;51.454;7.194;2023-05-16T09:06:02;4.97;;;1.67;;
1390;SDS011;690;51.454;7.194;2023-05-16T09:08:30;2.80;;;1.30;;
1390;SDS011;690;51.454;7.194;2023-05-16T09:10:57;4.17;;;1.30;;
1390;SDS011;690;51.454;7.194;2023-05-16T09:13:24;6.03;;;1.67;;
1390;SDS011;690;51.454;7.194;2023-05-16T09:18:34;4.00;;;1.83;;
1390;SDS011;690;51.454;7.194;2023-05-16T09:21:03;2.33;;;1.37;;
1390;SDS011;690;51.454;7.194;2023-05-16T09:23:30;6.67;;;1.60;;
1390;SDS011;690;51.454;7.194;2023-05-16T09:25:58;5.20;;;1.20;;
1390;SDS011;690;51.454;7.194;2023-05-16T09:28:25;4.43;;;1.40;;
1390;SDS011;690;51.454;7.194;2023-05-16T09:30:52;4.00;;;1.30;;
1390;SDS011;690;51.454;7.194;2023-05-16T09:33:23;5.80;;;2.17;;
1390;SDS011;690;51.454;7.194;2023-05-16T09:35:55;3.33;;;1.37;;
1390;SDS011;690;51.454;7.194;2023-05-16T09:38:24;4.50;;;1.43;;
1390;SDS011;690;51.454;7.194;2023-05-16T09:40:52;2.97;;;1.20;;
1390;SDS011;690;51.454;7.194;2023-05-16T09:43:21;2.47;;;1.10;;
1390;SDS011;690;51.454;7.194;2023-05-16T09:45:50;10.03;;;2.73;;
1390;SDS011;690;51.454;7.194;2023-05-16T09:48:19;4.00;;;1.47;;
1390;SDS011;690;51.454;7.194;2023-05-16T09:50:48;4.33;;;1.33;;
1390;SDS011;690;51.454;7.194;2023-05-16T09:53:17;5.60;;;1.33;;
1390;SDS011;690;51.454;7.194;2023-05-16T09:55:59;1.60;;;1.07;;
1390;SDS011;690;51.454;7.194;2023-05-16T09:58:27;3.50;;;0.90;;
1390;SDS011;690;51.454;7.194;2023-05-16T10:00:55;5.60;;;1.33;;
1390;SDS011;690;51.454;7.194;2023-05-16T10:03:23;5.43;;;1.47;;
1390;SDS011;690;51.454;7.194;2023-05-16T10:05:51;2.13;;;1.13;;
1390;SDS011;690;51.454;7.194;2023-05-16T10:08:19;5.90;;;1.23;;
1390;SDS011;690;51.454;7.194;2023-05-16T10:10:48;4.60;;;1.80;;
1390;SDS011;690;51.454;7.194;2023-05-16T10:13:19;4.37;;;1.13;;
1390;SDS011;690;51.454;7.194;2023-05-16T10:15:47;4.00;;;1.20;;
1390;SDS011;690;51.454;7.194;2023-05-16T10:18:15;6.87;;;1.50;;
1390;SDS011;690;51.454;7.194;2023-05-16T10:20:44;5.43;;;1.70;;
1390;SDS011;690;51.454;7.194;2023-05-16T10:23:15;8.00;;;1.83;;
1390;SDS011;690;51.454;7.194;2023-05-16T10:25:43;5.10;;;1.70;;
1390;SDS011;690;51.454;7.194;2023-05-16T10:28:11;5.43;;;1.10;;
1390;SDS011;690;51.454;7.194;2023-05-16T10:30:40;3.90;;;1.20;;
1390;SDS011;690;51.454;7.194;2023-05-16T10:33:10;2.83;;;1.10;;
1390;SDS011;690;51.454;7.194;2023-05-16T10:35:38;4.90;;;1.50;;
1390;SDS011;690;51.454;7.194;2023-05-16T10:38:05;6.47;;;2.10;;
1390;SDS011;690;51.454;7.194;2023-05-16T10:40:34;8.73;;;1.50;;
1390;SDS011;690;51.454;7.194;2023-05-16T10:43:03;3.57;;;1.40;;
1390;SDS011;690;51.454;7.194;2023-05-16T10:45:31;2.50;;;1.10;;
1390;SDS011;690;51.454;7.194;2023-05-16T10:48:00;3.10;;;1.00;;
1390;SDS011;690;51.454;7.194;2023-05-16T10:50:32;5.60;;;1.73;;
1390;SDS011;690;51.454;7.194;2023-05-16T10:53:18;4.97;;;2.00;;
1390;SDS011;690;51.454;7.194;2023-05-16T10:55:50;4.90;;;1.40;;
1390;SDS011;690;51.454;7.194;2023-05-16T10:58:42;8.87;;;2.73;;
1390;SDS011;690;51.454;7.194;2023-05-16T11:01:14;5.63;;;1.77;;
1390;SDS011;690;51.454;7.194;2023-05-16T11:06:45;5.20;;;1.60;;
1390;SDS011;690;51.454;7.194;2023-05-16T11:09:18;6.43;;;1.50;;
1390;SDS011;690;51.454;7.194;2023-05-16T11:11:53;3.60;;;1.87;;
1390;SDS011;690;51.454;7.194;2023-05-16T11:14:23;3.77;;;1.20;;
1390;SDS011;690;51.454;7.194;2023-05-16T11:16:51;4.20;;;1.10;;
1390;SDS011;690;51.454;7.194;2023-05-16T11:19:33;4.20;;;1.53;;
1390;SDS011;690;51.454;7.194;2023-05-16T11:22:08;6.90;;;2.00;;
1390;SDS011;690;51.454;7.194;2023-05-16T11:24:51;4.77;;;1.47;;
1390;SDS011;690;51.454;7.194;2023-05-16T11:27:27;8.60;;;1.80;;
1390;SDS011;690;51.454;7.194;2023-05-16T11:30:10;8.93;;;1.60;;
1390;SDS011;690;51.454;7.194;2023-05-16T11:32:40;3.53;;;1.37;;
1390;SDS011;690;51.454;7.194;2023-05-16T11:35:09;4.37;;;1.40;;
1390;SDS011;690;51.454;7.194;2023-05-16T11:37:38;4.37;;;1.20;;
1390;SDS011;690;51.454;7.194;2023-05-16T11:40:06;3.87;;;1.37;;
1390;SDS011;690;51.454;7.194;2023-05-16T11:42:35;4.70;;;1.43;;
1390;SDS011;690;51.454;7.194;2023-05-16T11:45:04;5.73;;;2.00;;
1390;SDS011;690;51.454;7.194;2023-05-16T11:47:32;5.27;;;1.27;;
1390;SDS011;690;51.454;7.194;2023-05-16T11:49:59;4.57;;;1.47;;
1390;SDS011;690;51.454;7.194;2023-05-16T11:52:27;3.00;;;1.73;;
1390;SDS011;690;51.454;7.194;2023-05-16T11:54:54;8.70;;;1.73;;
1390;SDS011;690;51.454;7.194;2023-05-16T11:57:25;5.07;;;1.33;;
1390;SDS011;690;51.454;7.194;2023-05-16T11:59:52;4.80;;;1.50;;
1390;SDS011;690;51.454;7.194;2023-05-16T12:02:24;5.73;;;1.27;;
1390;SDS011;690;51.454;7.194;2023-05-16T12:04:54;4.67;;;1.57;;
1390;SDS011;690;51.454;7.194;2023-05-16T12:07:26;5.00;;;1.67;;
1390;SDS011;690;51.454;7.194;2023-05-16T12:09:55;3.93;;;1.70;;
1390;SDS011;690;51.454;7.194;2023-05-16T12:12:21;7.90;;;1.70;;
1390;SDS011;690;51.454;7.194;2023-05-16T12:14:48;4.60;;;1.50;;
1390;SDS011;690;51.454;7.194;2023-05-16T12:17:15;2.77;;;1.13;;
1390;SDS011;690;51.454;7.194;2023-05-16T12:19:44;5.50;;;1.03;;
1390;SDS011;690;51.454;7.194;2023-05-16T12:22:14;3.07;;;1.10;;
1390;SDS011;690;51.454;7.194;2023-05-16T12:24:43;4.63;;;1.50;;
1390;SDS011;690;51.454;7.194;2023-05-16T12:27:10;2.37;;;1.30;;
1390;SDS011;690;51.454;7.194;2023-05-16T12:29:38;1.57;;;0.83;;
1390;SDS011;690;51.454;7.194;2023-05-16T12:32:06;2.73;;;1.17;;
1390;SDS011;690;51.454;7.194;2023-05-16T12:34:33;3.37;;;0.93;;
1390;SDS011;690;51.454;7.194;2023-05-16T12:37:00;4.67;;;1.40;;
1390;SDS011;690;51.454;7.194;2023-05-16T12:39:27;2.87;;;1.20;;
1390;SDS011;690;51.454;7.194;2023-05-16T12:42:05;2.37;;;1.30;;
1390;SDS011;690;51.454;7.194;2023-05-16T12:44:43;4.20;;;1.40;;
1390;SDS011;690;51.454;7.194;2023-05-16T12:47:10;3.27;;;1.60;;
1390;SDS011;690;51.454;7.194;2023-05-16T12:49:46;1.67;;;1.07;;
1390;SDS011;690;51.454;7.194;2023-05-16T12:52:22;5.17;;;1.20;;
1390;SDS011;690;51.454;7.194;2023-05-16T12:54:49;5.30;;;2.80;;
1390;SDS011;690;51.454;7.194;2023-05-16T12:57:28;4.50;;;2.90;;
1390;SDS011;690;51.454;7.194;2023-05-16T12:59:56;6.67;;;2.23;;
1390;SDS011;690;51.454;7.194;2023-05-16T13:02:26;6.90;;;1.57;;
1390;SDS011;690;51.454;7.194;2023-05-16T13:04:53;5.03;;;1.47;;
1390;SDS011;690;51.454;7.194;2023-05-16T13:07:26;4.60;;;1.47;;
1390;SDS011;690;51.454;7.194;2023-05-16T13:09:54;4.20;;;1.30;;
1390;SDS011;690;51.454;7.194;2023-05-16T13:12:32;2.40;;;1.00;;
1390;SDS011;690;51.454;7.194;2023-05-16T13:15:08;7.10;;;1.83;;
1390;SDS011;690;51.454;7.194;2023-05-16T13:17:37;3.83;;;1.63;;
1390;SDS011;690;51.454;7.194;2023-05-16T13:20:07;3.37;;;1.00;;
1390;SDS011;690;51.454;7.194;2023-05-16T13:22:39;5.93;;;1.40;;
1390;SDS011;690;51.454;7.194;2023-05-16T13:25:06;4.40;;;1.43;;
1390;SDS011;690;51.454;7.194;2023-05-16T13:27:35;3.23;;;1.00;;
1390;SDS011;690;51.454;7.194;2023-05-16T13:30:03;3.10;;;1.27;;
1390;SDS011;690;51.454;7.194;2023-05-16T13:32:30;4.23;;;1.07;;
1390;SDS011;690;51.454;7.194;2023-05-16T13:34:58;2.33;;;1.03;;
1390;SDS011;690;51.454;7.194;2023-05-16T13:37:25;2.20;;;1.10;;
1390;SDS011;690;51.454;7.194;2023-05-16T13:39:54;5.93;;;1.30;;
1390;SDS011;690;51.454;7.194;2023-05-16T13:42:21;3.33;;;1.27;;
1390;SDS011;690;51.454;7.194;2023-05-16T13:44:49;1.80;;;0.87;;
1390;SDS011;690;51.454;7.194;2023-05-16T13:47:16;6.13;;;1.13;;
1390;SDS011;690;51.454;7.194;2023-05-16T13:49:43;5.50;;;1.30;;
1390;SDS011;690;51.454;7.194;2023-05-16T13:52:10;3.00;;;1.53;;
1390;SDS011;690;51.454;7.194;2023-05-16T13:54:37;4.00;;;1.30;;
1390;SDS011;690;51.454;7.194;2023-05-16T13:57:06;3.73;;;1.57;;
1390;SDS011;690;51.454;7.194;2023-05-16T13:59:33;11.40;;;1.50;;
1390;SDS011;690;51.454;7.194;2023-05-16T14:02:01;4.00;;;1.17;;
1390;SDS011;690;51.454;7.194;2023-05-16T14:04:28;2.63;;;1.30;;
1390;SDS011;690;51.454;7.194;2023-05-16T14:06:55;2.83;;;1.00;;
1390;SDS011;690;51.454;7.194;2023-05-16T14:09:22;2.77;;;1.10;;
1390;SDS011;690;51.454;7.194;2023-05-16T14:11:50;4.50;;;1.10;;
1390;SDS011;690;51.454;7.194;2023-05-16T14:14:17;2.33;;;1.37;;
1390;SDS011;690;51.454;7.194;2023-05-16T14:16:44;4.87;;;1.30;;
1390;SDS011;690;51.454;7.194;2023-05-16T14:19:12;2.20;;;1.10;;
1390;SDS011;690;51.454;7.194;2023-05-16T14:21:40;5.87;;;1.90;;
1390;SDS011;690;51.454;7.194;2023-05-16T14:24:07;5.67;;;1.80;;
1390;SDS011;690;51.454;7.194;2023-05-16T14:26:34;4.97;;;1.50;;
1390;SDS011;690;51.454;7.194;2023-05-16T14:29:00;4.20;;;1.10;;
1390;SDS011;690;51.454;7.194;2023-05-16T14:31:28;3.07;;;1.33;;
1390;SDS011;690;51.454;7.194;2023-05-16T14:33:55;6.40;;;1.50;;
1390;SDS011;690;51.454;7.194;2023-05-16T14:36:24;2.60;;;1.00;;
1390;SDS011;690;51.454;7.194;2023-05-16T14:38:51;5.03;;;1.33;;
1390;SDS011;690;51.454;7.194;2023-05-16T14:41:18;5.20;;;1.77;;
1390;SDS011;690;51.454;7.194;2023-05-16T14:43:45;4.50;;;1.30;;
1390;SDS011;690;51.454;7.194;2023-05-16T14:46:11;4.20;;;1.50;;
1390;SDS011;690;51.454;7.194;2023-05-16T14:48:38;7.70;;;1.97;;
1390;SDS011;690;51.454;7.194;2023-05-16T14:51:05;3.27;;;1.67;;
1390;SDS011;690;51.454;7.194;2023-05-16T14:53:34;5.00;;;1.57;;
1390;SDS011;690;51.454;7.194;2023-05-16T14:56:01;5.30;;;1.70;;
1390;SDS011;690;51.454;7.194;2023-05-16T14:58:28;3.30;;;1.60;;
1390;SDS011;690;51.454;7.194;2023-05-16T15:00:55;3.80;;;1.80;;
1390;SDS011;690;51.454;7.194;2023-05-16T15:03:22;5.13;;;1.80;;
1390;SDS011;690;51.454;7.194;2023-05-16T15:05:49;3.20;;;1.37;;
1390;SDS011;690;51.454;7.194;2023-05-16T15:08:16;2.57;;;1.50;;
1390;SDS011;690;51.454;7.194;2023-05-16T15:10:45;4.80;;;1.50;;
1390;SDS011;690;51.454;7.194;2023-05-16T15:13:11;3.30;;;1.23;;
1390;SDS011;690;51.454;7.194;2023-05-16T15:15:38;7.60;;;2.70;;
1390;SDS011;690;51.454;7.194;2023-05-16T15:18:06;7.03;;;1.70;;
1390;SDS011;690;51.454;7.194;2023-05-16T15:20:35;4.60;;;1.57;;
1390;SDS011;690;51.454;7.194;2023-05-16T15:23:01;5.20;;;2.03;;
1390;SDS011;690;51.454;7.194;2023-05-16T15:25:29;3.77;;;1.80;;
1390;SDS011;690;51.454;7.194;2023-05-16T15:27:57;7.30;;;1.60;;
1390;SDS011;690;51.454;7.194;2023-05-16T15:30:24;8.27;;;2.23;;
1390;SDS011;690;51.454;7.194;2023-05-16T15:32:52;5.50;;;1.70;;
1390;SDS011;690;51.454;7.194;2023-05-16T15:35:19;6.77;;;1.90;;
1390;SDS011;690;51.454;7.194;2023-05-16T15:37:46;6.23;;;1.30;;